sensor_id;sensor_type;location;lat;lon;timestamp;P1;durP1;ratioP1;P2;durP2;ratioP2
45642;SDS011;31358;46.008;11.144;2023-05-07T14:57:57;6.72;;;4.10;;
45642;SDS011;31358;46.008;11.144;2023-05-07T15:00:23;5.25;;;3.88;;
45642;SDS011;31358;46.008;11.144;2023-05-07T15:02:49;7.95;;;4.95;;
45642;SDS011;31358;46.008;11.144;2023-05-07T15:05:14;8.40;;;4.25;;
45642;SDS011;31358;46.008;11.144;2023-05-07T15:07:40;7.57;;;4.15;;
45642;SDS011;31358;46.008;11.144;2023-05-07T15:10:06;6.18;;;4.13;;
45642;SDS011;31358;46.008;11.144;2023-05-07T15:12:31;6.60;;;4.32;;
45642;SDS011;31358;46.008;11.144;2023-05-07T15:14:57;5.00;;;3.40;;
45642;SDS011;31358;46.008;11.144;2023-05-07T15:17:23;6.18;;;4.05;;
45642;SDS011;31358;46.008;11.144;2023-05-07T15:19:48;6.70;;;3.20;;
45642;SDS011;31358;46.008;11.144;2023-05-07T15:22:14;6.30;;;4.03;;
45642;SDS011;31358;46.008;11.144;2023-05-07T15:24:40;5.47;;;3.28;;
45642;SDS011;31358;46.008;11.144;2023-05-07T15:27:06;5.63;;;4.07;;
45642;SDS011;31358;46.008;11.144;2023-05-07T15:29:32;6.80;;;4.03;;
45642;SDS011;31358;46.008;11.144;2023-05-07T15:31:57;6.20;;;3.85;;
45642;SDS011;31358;46.008;11.144;2023-05-07T15:34:23;7.82;;;3.95;;
45642;SDS011;31358;46.008;11.144;2023-05-07T15:36:49;6.38;;;3.78;;
45642;SDS011;31358;46.008;11.144;2023-05-07T15:39:15;5.40;;;3.63;;
45642;SDS011;31358;46.008;11.144;2023-05-07T15:41:41;4.70;;;3.65;;
45642;SDS011;31358;46.008;11.144;2023-05-07T15:44:06;8.05;;;3.95;;
45642;SDS011;31358;46.008;11.144;2023-05-07T15:46:32;6.03;;;3.90;;
45642;SDS011;31358;46.008;11.144;2023-05-07T15:48:58;6.13;;;4.45;;
45642;SDS011;31358;46.008;11.144;2023-05-07T15:51:27;5.75;;;4.15;;
45642;SDS011;31358;46.008;11.144;2023-05-07T15:53:54;6.97;;;4.45;;
45642;SDS011;31358;46.008;11.144;2023-05-07T15:56:20;6.38;;;4.80;;
45642;SDS011;31358;46.008;11.144;2023-05-07T15:58:46;5.15;;;3.85;;
45642;SDS011;31358;46.008;11.144;2023-05-07T16:01:12;5.70;;;4.20;;
45642;SDS011;31358;46.008;11.144;2023-05-07T16:03:38;7.55;;;5.13;;
45642;SDS011;31358;46.008;11.144;2023-05-07T16:06:04;6.13;;;5.03;;
45642;SDS011;31358;46.008;11.144;2023-05-07T16:08:30;5.05;;;3.30;;
45642;SDS011;31358;46.008;11.144;2023-05-07T16:10:57;23.45;;;5.15;;
45642;SDS011;31358;46.008;11.144;2023-05-07T16:13:23;5.68;;;3.30;;
45642;SDS011;31358;46.008;11.144;2023-05-07T16:15:49;6.25;;;3.13;;
45642;SDS011;31358;46.008;11.144;2023-05-07T16:18:19;5.85;;;3.30;;
45642;SDS011;31358;46.008;11.144;2023-05-07T16:20:45;6.55;;;3.55;;
45642;SDS011;31358;46.008;11.144;2023-05-07T16:23:10;4.88;;;3.28;;
45642;SDS011;31358;46.008;11.144;2023-05-07T16:25:37;4.85;;;3.58;;
45642;SDS011;31358;46.008;11.144;2023-05-07T16:28:03;5.97;;;2.97;;
45642;SDS011;31358;46.008;11.144;2023-05-07T16:30:28;4.40;;;3.17;;
45642;SDS011;31358;46.008;11.144;2023-05-07T16:32:54;4.30;;;2.70;;
45642;SDS011;31358;46.008;11.144;2023-05-07T16:35:20;6.32;;;3.10;;
45642;SDS011;31358;46.008;11.144;2023-05-07T16:37:46;7.15;;;2.70;;
45642;SDS011;31358;46.008;11.144;2023-05-07T16:40:11;4.05;;;2.63;;
45642;SDS011;31358;46.008;11.144;2023-05-07T16:42:37;12.75;;;3.75;;
45642;SDS011;31358;46.008;11.144;2023-05-07T16:45:03;11.88;;;3.35;;
45642;SDS011;31358;46.008;11.144;2023-05-07T16:47:30;5.72;;;2.78;;
45642;SDS011;31358;46.008;11.144;2023-05-07T16:49:56;7.47;;;3.15;;
45642;SDS011;31358;46.008;11.144;2023-05-07T16:52:24;4.70;;;3.00;;
45642;SDS011;31358;46.008;11.144;2023-05-07T16:54:50;5.70;;;3.35;;
45642;SDS011;31358;46.008;11.144;2023-05-07T16:57:17;7.00;;;3.38;;
45642;SDS011;31358;46.008;11.144;2023-05-07T16:59:42;6.32;;;3.42;;
45642;SDS011;31358;46.008;11.144;2023-05-07T17:02:08;10.38;;;4.20;;
45642;SDS011;31358;46.008;11.144;2023-05-07T17:04:33;8.38;;;4.82;;
45642;SDS011;31358;46.008;11.144;2023-05-07T17:06:59;6.28;;;4.18;;
45642;SDS011;31358;46.008;11.144;2023-05-07T17:09:25;10.02;;;5.00;;
45642;SDS011;31358;46.008;11.144;2023-05-07T17:11:51;8.93;;;6.38;;
45642;SDS011;31358;46.008;11.144;2023-05-07T17:14:17;9.48;;;6.75;;
45642;SDS011;31358;46.008;11.144;2023-05-07T17:16:42;8.40;;;6.32;;
45642;SDS011;31358;46.008;11.144;2023-05-07T17:19:08;10.25;;;6.47;;
45642;SDS011;31358;46.008;11.144;2023-05-07T17:21:33;13.05;;;6.63;;
45642;SDS011;31358;46.008;11.144;2023-05-07T17:24:02;8.68;;;6.82;;
45642;SDS011;31358;46.008;11.144;2023-05-07T17:26:28;8.35;;;5.78;;
45642;SDS011;31358;46.008;11.144;2023-05-07T17:28:55;10.95;;;6.80;;
45642;SDS011;31358;46.008;11.144;2023-05-07T17:31:21;8.48;;;5.40;;
45642;SDS011;31358;46.008;11.144;2023-05-07T17:33:46;13.48;;;5.90;;
45642;SDS011;31358;46.008;11.144;2023-05-07T17:36:12;12.57;;;6.30;;
45642;SDS011;31358;46.008;11.144;2023-05-07T17:38:38;7.55;;;5.22;;
45642;SDS011;31358;46.008;11.144;2023-05-07T17:41:03;7.13;;;3.72;;
45642;SDS011;31358;46.008;11.144;2023-05-07T17:43:29;7.50;;;4.63;;
45642;SDS011;31358;46.008;11.144;2023-05-07T17:45:54;6.57;;;4.80;;
45642;SDS011;31358;46.008;11.144;2023-05-07T17:48:20;8.23;;;4.47;;
45642;SDS011;31358;46.008;11.144;2023-05-07T17:50:46;7.53;;;3.88;;
45642;SDS011;31358;46.008;11.144;2023-05-07T17:53:11;8.02;;;4.38;;
45642;SDS011;31358;46.008;11.144;2023-05-07T17:55:43;6.97;;;3.72;;
45642;SDS011;31358;46.008;11.144;2023-05-07T17:58:10;18.00;;;5.75;;
45642;SDS011;31358;46.008;11.144;2023-05-07T18:00:36;14.75;;;6.03;;
45642;SDS011;31358;46.008;11.144;2023-05-07T18:03:02;10.25;;;6.13;;
45642;SDS011;31358;46.008;11.144;2023-05-07T18:05:29;12.10;;;6.85;;
45642;SDS011;31358;46.008;11.144;2023-05-07T18:07:54;10.68;;;5.82;;
45642;SDS011;31358;46.008;11.144;2023-05-07T18:10:23;9.82;;;5.90;;
45642;SDS011;31358;46.008;11.144;2023-05-07T18:12:49;11.13;;;6.07;;
45642;SDS011;31358;46.008;11.144;2023-05-07T18:15:14;9.73;;;6.55;;
45642;SDS011;31358;46.008;11.144;2023-05-07T18:17:40;10.85;;;5.55;;
45642;SDS011;31358;46.008;11.144;2023-05-07T18:20:06;11.25;;;5.82;;
45642;SDS011;31358;46.008;11.144;2023-05-07T18:22:35;9.50;;;5.43;;
45642;SDS011;31358;46.008;11.144;2023-05-07T18:25:04;11.77;;;5.45;;
45642;SDS011;31358;46.008;11.144;2023-05-07T18:27:30;11.35;;;5.65;;
45642;SDS011;31358;46.008;11.144;2023-05-07T18:29:55;8.02;;;4.93;;
45642;SDS011;31358;46.008;11.144;2023-05-07T18:32:21;6.60;;;4.68;;
45642;SDS011;31358;46.008;11.144;2023-05-07T18:34:47;10.73;;;6.28;;
45642;SDS011;31358;46.008;11.144;2023-05-07T18:37:13;9.02;;;5.18;;
45642;SDS011;31358;46.008;11.144;2023-05-07T18:39:39;11.73;;;5.32;;
45642;SDS011;31358;46.008;11.144;2023-05-07T18:42:05;9.82;;;5.22;;
45642;SDS011;31358;46.008;11.144;2023-05-07T18:44:32;9.65;;;5.53;;
45642;SDS011;31358;46.008;11.144;2023-05-07T18:47:01;6.30;;;4.32;;
45642;SDS011;31358;46.008;11.144;2023-05-07T18:49:27;7.68;;;4.65;;
45642;SDS011;31358;46.008;11.144;2023-05-07T18:51:53;5.50;;;3.88;;
45642;SDS011;31358;46.008;11.144;2023-05-07T18:54:18;7.47;;;4.35;;
45642;SDS011;31358;46.008;11.144;2023-05-07T18:56:44;7.32;;;4.00;;
45642;SDS011;31358;46.008;11.144;2023-05-07T18:59:10;6.43;;;4.07;;
45642;SDS011;31358;46.008;11.144;2023-05-07T19:01:35;10.52;;;4.70;;
45642;SDS011;31358;46.008;11.144;2023-05-07T19:04:01;9.73;;;5.47;;
45642;SDS011;31358;46.008;11.144;2023-05-07T19:06:26;6.82;;;4.35;;
45642;SDS011;31358;46.008;11.144;2023-05-07T19:08:52;7.30;;;4.20;;
45642;SDS011;31358;46.008;11.144;2023-05-07T19:11:18;6.63;;;3.70;;
45642;SDS011;31358;46.008;11.144;2023-05-07T19:13:44;6.82;;;4.35;;
45642;SDS011;31358;46.008;11.144;2023-05-07T19:16:09;6.38;;;3.90;;
45642;SDS011;31358;46.008;11.144;2023-05-07T19:18:37;6.80;;;4.30;;
45642;SDS011;31358;46.008;11.144;2023-05-07T19:21:03;7.25;;;4.03;;
45642;SDS011;31358;46.008;11.144;2023-05-07T19:23:28;7.40;;;4.13;;
45642;SDS011;31358;46.008;11.144;2023-05-07T19:25:54;7.35;;;3.97;;
45642;SDS011;31358;46.008;11.144;2023-05-07T19:28:20;6.10;;;3.40;;
45642;SDS011;31358;46.008;11.144;2023-05-07T19:30:45;6.60;;;4.22;;
45642;SDS011;31358;46.008;11.144;2023-05-07T19:33:13;9.18;;;4.68;;
45642;SDS011;31358;46.008;11.144;2023-05-07T19:35:39;6.60;;;4.25;;
45642;SDS011;31358;46.008;11.144;2023-05-07T19:38:05;6.00;;;4.07;;
45642;SDS011;31358;46.008;11.144;2023-05-07T19:40:32;5.75;;;4.15;;
45642;SDS011;31358;46.008;11.144;2023-05-07T19:42:58;7.32;;;4.30;;
45642;SDS011;31358;46.008;11.144;2023-05-07T20:03:17;7.78;;;5.25;;
45642;SDS011;31358;46.008;11.144;2023-05-07T20:05:44;9.27;;;6.30;;
45642;SDS011;31358;46.008;11.144;2023-05-07T20:08:11;13.27;;;6.25;;
45642;SDS011;31358;46.008;11.144;2023-05-07T20:10:37;14.45;;;6.95;;
45642;SDS011;31358;46.008;11.144;2023-05-07T20:13:02;12.50;;;5.93;;
45642;SDS011;31358;46.008;11.144;2023-05-07T20:15:28;13.63;;;6.45;;
45642;SDS011;31358;46.008;11.144;2023-05-07T20:17:54;9.73;;;5.70;;
45642;SDS011;31358;46.008;11.144;2023-05-07T20:20:19;9.30;;;5.90;;
45642;SDS011;31358;46.008;11.144;2023-05-07T20:22:45;10.32;;;5.75;;
45642;SDS011;31358;46.008;11.144;2023-05-07T20:25:11;9.70;;;5.88;;
45642;SDS011;31358;46.008;11.144;2023-05-07T20:27:39;9.63;;;5.88;;
45642;SDS011;31358;46.008;11.144;2023-05-07T20:30:06;10.65;;;5.70;;
45642;SDS011;31358;46.008;11.144;2023-05-07T20:32:32;8.07;;;5.30;;
45642;SDS011;31358;46.008;11.144;2023-05-07T20:34:58;6.47;;;3.53;;
45642;SDS011;31358;46.008;11.144;2023-05-07T20:37:24;6.28;;;4.45;;
45642;SDS011;31358;46.008;11.144;2023-05-07T20:39:50;10.40;;;4.40;;
45642;SDS011;31358;46.008;11.144;2023-05-07T20:42:16;6.35;;;4.28;;
45642;SDS011;31358;46.008;11.144;2023-05-07T20:44:42;5.13;;;3.55;;
45642;SDS011;31358;46.008;11.144;2023-05-07T20:47:08;8.45;;;4.72;;
45642;SDS011;31358;46.008;11.144;2023-05-07T20:49:34;7.50;;;4.55;;
45642;SDS011;31358;46.008;11.144;2023-05-07T20:52:00;6.15;;;4.20;;
45642;SDS011;31358;46.008;11.144;2023-05-07T20:54:26;7.68;;;4.07;;
45642;SDS011;31358;46.008;11.144;2023-05-07T20:56:54;7.38;;;3.30;;
45642;SDS011;31358;46.008;11.144;2023-05-07T20:59:21;7.45;;;3.42;;
45642;SDS011;31358;46.008;11.144;2023-05-07T21:01:48;7.03;;;3.33;;
45642;SDS011;31358;46.008;11.144;2023-05-07T21:04:14;6.28;;;3.30;;
45642;SDS011;31358;46.008;11.144;2023-05-07T21:06:39;6.55;;;4.40;;
45642;SDS011;31358;46.008;11.144;2023-05-07T21:09:06;7.20;;;4.10;;
45642;SDS011;31358;46.008;11.144;2023-05-07T21:11:33;7.20;;;4.22;;
45642;SDS011;31358;46.008;11.144;2023-05-07T21:13:58;7.53;;;3.55;;
45642;SDS011;31358;46.008;11.144;2023-05-07T21:16:24;7.82;;;3.95;;
45642;SDS011;31358;46.008;11.144;2023-05-07T21:18:50;5.00;;;3.00;;
45642;SDS011;31358;46.008;11.144;2023-05-07T21:21:15;5.60;;;3.78;;
45642;SDS011;31358;46.008;11.144;2023-05-07T21:23:41;4.82;;;2.95;;
45642;SDS011;31358;46.008;11.144;2023-05-07T21:26:07;8.38;;;4.13;;
45642;SDS011;31358;46.008;11.144;2023-05-07T21:28:33;5.15;;;3.75;;
45642;SDS011;31358;46.008;11.144;2023-05-07T21:30:58;5.40;;;3.45;;
45642;SDS011;31358;46.008;11.144;2023-05-07T21:33:24;7.32;;;3.67;;
45642;SDS011;31358;46.008;11.144;2023-05-07T21:35:50;5.35;;;3.47;;
45642;SDS011;31358;46.008;11.144;2023-05-07T21:38:16;6.75;;;4.22;;
45642;SDS011;31358;46.008;11.144;2023-05-07T21:40:44;6.22;;;3.83;;
45642;SDS011;31358;46.008;11.144;2023-05-07T21:43:10;5.25;;;3.63;;
45642;SDS011;31358;46.008;11.144;2023-05-07T21:45:35;4.78;;;3.22;;
45642;SDS011;31358;46.008;11.144;2023-05-07T21:48:03;9.13;;;3.80;;
45642;SDS011;31358;46.008;11.144;2023-05-07T21:50:29;8.70;;;3.60;;
45642;SDS011;31358;46.008;11.144;2023-05-07T21:52:55;6.53;;;3.95;;
45642;SDS011;31358;46.008;11.144;2023-05-07T21:55:20;6.30;;;3.72;;
45642;SDS011;31358;46.008;11.144;2023-05-07T21:57:46;6.18;;;3.28;;
45642;SDS011;31358;46.008;11.144;2023-05-07T22:00:12;5.20;;;3.40;;
45642;SDS011;31358;46.008;11.144;2023-05-07T22:02:38;6.65;;;4.38;;
45642;SDS011;31358;46.008;11.144;2023-05-07T22:05:03;6.13;;;3.78;;
45642;SDS011;31358;46.008;11.144;2023-05-07T22:07:30;6.07;;;3.70;;
45642;SDS011;31358;46.008;11.144;2023-05-07T22:09:55;5.90;;;3.60;;
45642;SDS011;31358;46.008;11.144;2023-05-07T22:12:21;6.82;;;3.92;;
45642;SDS011;31358;46.008;11.144;2023-05-07T22:14:47;5.60;;;4.30;;
45642;SDS011;31358;46.008;11.144;2023-05-07T22:17:12;9.45;;;4.28;;
45642;SDS011;31358;46.008;11.144;2023-05-07T22:19:38;6.72;;;4.32;;
45642;SDS011;31358;46.008;11.144;2023-05-07T22:22:04;7.88;;;4.15;;
45642;SDS011;31358;46.008;11.144;2023-05-07T22:24:30;5.30;;;3.63;;
45642;SDS011;31358;46.008;11.144;2023-05-07T22:26:55;7.28;;;4.25;;
45642;SDS011;31358;46.008;11.144;2023-05-07T22:29:21;6.03;;;4.38;;
45642;SDS011;31358;46.008;11.144;2023-05-07T22:31:50;5.82;;;3.67;;
45642;SDS011;31358;46.008;11.144;2023-05-07T22:34:16;6.82;;;4.20;;
45642;SDS011;31358;46.008;11.144;2023-05-07T22:36:42;7.15;;;4.35;;
45642;SDS011;31358;46.008;11.144;2023-05-07T22:39:08;6.13;;;4.70;;
45642;SDS011;31358;46.008;11.144;2023-05-07T22:41:34;7.00;;;4.18;;
45642;SDS011;31358;46.008;11.144;2023-05-07T22:44:00;7.63;;;3.80;;
45642;SDS011;31358;46.008;11.144;2023-05-07T22:46:26;7.60;;;5.03;;
45642;SDS011;31358;46.008;11.144;2023-05-07T22:48:52;5.72;;;3.65;;
45642;SDS011;31358;46.008;11.144;2023-05-07T22:51:17;7.88;;;3.95;;
45642;SDS011;31358;46.008;11.144;2023-05-07T22:53:43;5.28;;;3.80;;
45642;SDS011;31358;46.008;11.144;2023-05-07T22:56:10;6.57;;;4.00;;
45642;SDS011;31358;46.008;11.144;2023-05-07T22:58:36;8.30;;;3.90;;
45642;SDS011;31358;46.008;11.144;2023-05-07T23:01:01;6.72;;;4.35;;
45642;SDS011;31358;46.008;11.144;2023-05-07T23:03:27;8.07;;;4.40;;
45642;SDS011;31358;46.008;11.144;2023-05-07T23:05:53;5.90;;;4.10;;
45642;SDS011;31358;46.008;11.144;2023-05-07T23:08:19;8.68;;;4.55;;
45642;SDS011;31358;46.008;11.144;2023-05-07T23:10:44;6.90;;;4.35;;
45642;SDS011;31358;46.008;11.144;2023-05-07T23:13:10;6.65;;;4.90;;
45642;SDS011;31358;46.008;11.144;2023-05-07T23:15:41;7.95;;;4.88;;
45642;SDS011;31358;46.008;11.144;2023-05-07T23:18:07;7.03;;;4.82;;
45642;SDS011;31358;46.008;11.144;2023-05-07T23:20:33;7.15;;;5.03;;
45642;SDS011;31358;46.008;11.144;2023-05-07T23:22:59;8.98;;;5.55;;
45642;SDS011;31358;46.008;11.144;2023-05-07T23:25:24;10.48;;;5.32;;
45642;SDS011;31358;46.008;11.144;2023-05-07T23:27:50;8.43;;;5.60;;
45642;SDS011;31358;46.008;11.144;2023-05-07T23:30:16;7.10;;;5.22;;
45642;SDS011;31358;46.008;11.144;2023-05-07T23:32:41;6.90;;;5.15;;
45642;SDS011;31358;46.008;11.144;2023-05-07T23:35:07;7.32;;;4.90;;
45642;SDS011;31358;46.008;11.144;2023-05-07T23:37:33;6.32;;;4.45;;
45642;SDS011;31358;46.008;11.144;2023-05-07T23:39:59;11.65;;;5.28;;
45642;SDS011;31358;46.008;11.144;2023-05-07T23:42:25;8.10;;;4.68;;
45642;SDS011;31358;46.008;11.144;2023-05-07T23:44:50;8.15;;;5.20;;
45642;SDS011;31358;46.008;11.144;2023-05-07T23:47:16;8.52;;;5.00;;
45642;SDS011;31358;46.008;11.144;2023-05-07T23:49:42;9.98;;;4.57;;
45642;SDS011;31358;46.008;11.144;2023-05-07T23:52:07;9.02;;;4.45;;
45642;SDS011;31358;46.008;11.144;2023-05-07T23:54:33;6.82;;;4.63;;
45642;SDS011;31358;46.008;11.144;2023-05-07T23:56:59;6.57;;;4.57;;
45642;SDS011;31358;46.008;11.144;2023-05-07T23:59:25;10.98;;;4.15;;
